Time;durP1;ratioP1;P1;durP2;ratioP2;P2;SDS_P1;SDS_P2;PMS_P1;PMS_P2;Temp;Humidity;BMP_temperature;BMP_pressure;BME280_temperature;BME280_humidity;BME280_pressure;Samples;Min_cycle;Max_cycle;Signal;HPM_P1;HPM_P2
2022/04/15 00:02:10;;;;;;;12.02;6.03;;;15.80;53.40;;;;;;5073997;28;20097;-75
2022/04/15 00:04:37;;;;;;;10.57;5.40;;;15.80;53.40;;;;;;5074106;28;20076;-74
2022/04/15 00:07:03;;;;;;;11.32;5.28;;;15.80;53.60;;;;;;5073976;28;20024;-74
2022/04/15 00:09:33;;;;;;;10.18;5.35;;;15.80;53.80;;;;;;5073920;28;20032;-75
2022/04/15 00:12:06;;;;;;;9.98;5.88;;;15.80;54.10;;;;;;5073119;28;20055;-75
2022/04/15 00:14:32;;;;;;;11.20;5.60;;;15.80;54.10;;;;;;5073942;28;20021;-75
2022/04/15 00:16:58;;;;;;;10.07;5.95;;;15.70;54.20;;;;;;5073139;28;20787;-75
2022/04/15 00:19:23;;;;;;;10.73;6.05;;;15.70;54.20;;;;;;5055649;28;20036;-74
2022/04/15 00:21:50;;;;;;;9.07;5.40;;;15.70;54.40;;;;;;5073023;28;20039;-75
2022/04/15 00:24:16;;;;;;;10.07;6.00;;;15.70;54.40;;;;;;5073638;28;20103;-74
2022/04/15 00:26:41;;;;;;;11.30;5.68;;;15.70;54.50;;;;;;5072990;28;20024;-75
2022/04/15 00:29:07;;;;;;;13.23;5.63;;;15.70;54.70;;;;;;5073518;28;20472;-75
2022/04/15 00:31:36;;;;;;;11.88;6.00;;;15.70;54.70;;;;;;5055639;28;20449;-75
2022/04/15 00:34:20;;;;;;;10.02;5.57;;;15.70;54.80;;;;;;5072808;28;20029;-75
2022/04/15 00:36:46;;;;;;;10.68;5.50;;;15.70;55.00;;;;;;5072532;28;20024;-76
2022/04/15 00:39:11;;;;;;;10.02;5.70;;;15.70;55.10;;;;;;5073386;28;20107;-76
2022/04/15 00:41:40;;;;;;;10.45;5.35;;;15.70;55.20;;;;;;5073411;28;20330;-76
2022/04/15 00:44:06;;;;;;;10.93;5.38;;;15.70;55.50;;;;;;5072906;28;20021;-75
2022/04/15 00:46:31;;;;;;;10.07;5.35;;;15.70;55.40;;;;;;5072813;28;20127;-75
2022/04/15 00:48:57;;;;;;;7.75;5.22;;;15.70;55.40;;;;;;5072423;28;20025;-76
2022/04/15 00:51:23;;;;;;;9.52;5.45;;;15.70;55.50;;;;;;5073175;28;20032;-75
2022/04/15 00:53:50;;;;;;;10.40;4.93;;;15.60;55.60;;;;;;5072478;28;20464;-77
2022/04/15 00:56:16;;;;;;;9.93;4.97;;;15.60;55.90;;;;;;5072570;28;20483;-77
2022/04/15 00:58:45;;;;;;;9.40;4.38;;;15.60;55.90;;;;;;5072051;28;20111;-77
2022/04/15 01:01:11;;;;;;;10.88;5.20;;;15.60;55.90;;;;;;5072996;28;20044;-75
2022/04/15 01:03:37;;;;;;;12.02;5.22;;;15.60;55.90;;;;;;5072904;28;20354;-77
2022/04/15 01:06:06;;;;;;;9.85;5.20;;;15.60;55.90;;;;;;5072230;28;20039;-77
2022/04/15 01:08:35;;;;;;;8.30;4.30;;;15.60;56.00;;;;;;5072740;28;20089;-76
2022/04/15 01:11:02;;;;;;;8.18;4.47;;;15.60;56.10;;;;;;5058260;28;20038;-76
2022/04/15 01:13:32;;;;;;;9.90;4.32;;;15.50;56.20;;;;;;5092666;28;20465;-77
2022/04/15 01:15:59;;;;;;;7.82;4.57;;;15.50;55.60;;;;;;5092297;28;20098;-77
2022/04/15 01:18:24;;;;;;;11.90;4.10;;;15.50;55.10;;;;;;5093122;28;20113;-77
2022/04/15 01:20:52;;;;;;;9.63;3.92;;;15.50;55.00;;;;;;5074002;28;20484;-77
2022/04/15 01:23:19;;;;;;;15.80;4.13;;;15.50;54.80;;;;;;5092889;28;20024;-77
2022/04/15 01:25:45;;;;;;;9.90;4.22;;;15.50;54.90;;;;;;5092073;28;20028;-78
2022/04/15 01:28:10;;;;;;;7.10;3.47;;;15.50;54.80;;;;;;5092747;28;20035;-78
2022/04/15 01:30:36;;;;;;;7.88;3.70;;;15.50;54.80;;;;;;5092717;28;20081;-77
2022/04/15 01:33:03;;;;;;;8.88;3.60;;;15.50;54.60;;;;;;5091705;28;20028;-77
2022/04/15 01:35:29;;;;;;;6.38;3.67;;;15.60;54.60;;;;;;5092670;28;20024;-77
2022/04/15 01:37:57;;;;;;;7.43;4.03;;;15.50;54.30;;;;;;5073567;28;20028;-77
2022/04/15 01:40:23;;;;;;;6.88;3.70;;;15.60;54.00;;;;;;5075906;28;20020;-77
2022/04/15 01:42:49;;;;;;;6.10;3.78;;;15.60;54.00;;;;;;5071605;28;20036;-77
2022/04/15 01:45:15;;;;;;;6.13;3.60;;;15.60;53.90;;;;;;5072035;28;20029;-77
2022/04/15 01:47:41;;;;;;;8.82;3.95;;;15.60;54.10;;;;;;5072260;28;20020;-77
2022/04/15 01:50:08;;;;;;;7.50;3.83;;;15.60;54.30;;;;;;5071768;28;20024;-77
2022/04/15 01:52:34;;;;;;;7.43;4.35;;;15.60;54.30;;;;;;5071976;28;20477;-77
2022/04/15 01:55:01;;;;;;;10.38;3.97;;;15.60;54.30;;;;;;5071794;28;20031;-78
2022/04/15 01:57:26;;;;;;;7.47;4.18;;;15.60;54.50;;;;;;5072345;28;20047;-77
2022/04/15 01:59:52;;;;;;;8.13;4.00;;;15.60;55.00;;;;;;5071725;28;20437;-77
2022/04/15 02:02:18;;;;;;;8.57;3.97;;;15.60;54.50;;;;;;5078687;28;20382;-77
2022/04/15 02:04:43;;;;;;;10.35;4.65;;;15.60;54.10;;;;;;5077808;28;20403;-77
2022/04/15 02:07:09;;;;;;;9.18;4.20;;;15.60;54.30;;;;;;5053362;28;20032;-77
2022/04/15 02:09:35;;;;;;;7.72;4.25;;;15.60;54.60;;;;;;5071617;28;20103;-78
2022/04/15 02:12:00;;;;;;;8.43;4.38;;;15.60;54.80;;;;;;5071237;28;20082;-78
2022/04/15 02:14:26;;;;;;;8.43;4.22;;;15.60;55.10;;;;;;5072044;28;20056;-78
2022/04/15 02:16:53;;;;;;;10.25;4.20;;;15.60;55.40;;;;;;5071529;28;20428;-78
2022/04/15 02:19:23;;;;;;;7.43;3.78;;;15.60;55.50;;;;;;5071960;28;20052;-78
2022/04/15 02:21:49;;;;;;;8.38;4.13;;;15.60;55.50;;;;;;5071236;28;20067;-79
2022/04/15 02:24:15;;;;;;;12.32;4.53;;;15.60;55.60;;;;;;5071977;28;20071;-78
2022/04/15 02:26:41;;;;;;;7.57;4.38;;;15.60;55.50;;;;;;5072013;28;20418;-78
2022/04/15 02:29:26;;;;;;;10.25;4.45;;;15.60;55.80;;;;;;5071149;28;20048;-76
2022/04/15 02:31:52;;;;;;;13.43;4.47;;;15.60;55.80;;;;;;5071417;28;20028;-77
2022/04/15 02:34:17;;;;;;;8.40;6.25;;;15.60;55.90;;;;;;5071729;28;20082;-77
2022/04/15 02:36:43;;;;;;;14.50;8.38;;;15.60;56.30;;;;;;5071684;28;20027;-77
2022/04/15 02:39:11;;;;;;;18.08;9.50;;;15.60;57.70;;;;;;5071162;28;20056;-78
2022/04/15 02:41:42;;;;;;;13.05;8.98;;;15.60;58.40;;;;;;5071568;28;20040;-77
2022/04/15 02:44:08;;;;;;;14.40;11.27;;;15.60;59.20;;;;;;5071009;28;20021;-77
2022/04/15 02:46:35;;;;;;;17.45;11.95;;;15.60;60.40;;;;;;5071634;28;20024;-77
2022/04/15 02:49:01;;;;;;;17.98;11.75;;;15.60;61.10;;;;;;5070882;28;20445;-78
2022/04/15 02:51:26;;;;;;;22.52;13.07;;;15.60;61.50;;;;;;5071855;28;20036;-77
2022/04/15 02:53:52;;;;;;;23.23;12.95;;;15.60;61.80;;;;;;5070655;28;20449;-77
2022/04/15 02:56:18;;;;;;;16.13;12.43;;;15.60;61.90;;;;;;5071144;28;20028;-77
2022/04/15 02:58:43;;;;;;;20.85;13.57;;;15.60;62.20;;;;;;5071735;28;20021;-77
2022/04/15 03:01:09;;;;;;;18.27;13.18;;;15.60;62.60;;;;;;5070372;28;20045;-77
2022/04/15 03:03:34;;;;;;;17.90;13.52;;;15.70;63.40;;;;;;5071067;28;20044;-77
2022/04/15 03:06:02;;;;;;;18.40;13.50;;;15.60;63.50;;;;;;5070731;28;20020;-77
2022/04/15 03:08:30;;;;;;;19.25;14.20;;;15.60;64.10;;;;;;5053313;28;20025;-77
2022/04/15 03:10:57;;;;;;;19.17;13.25;;;15.60;64.50;;;;;;5052665;28;20052;-76
2022/04/15 03:13:23;;;;;;;18.00;13.80;;;15.60;65.50;;;;;;5052943;28;20040;-76
2022/04/15 03:15:49;;;;;;;19.15;14.82;;;15.50;65.80;;;;;;5090973;28;20537;-77
2022/04/15 03:18:15;;;;;;;19.27;14.88;;;15.50;66.40;;;;;;5090840;28;20052;-77
2022/04/15 03:20:42;;;;;;;19.00;13.98;;;15.50;67.00;;;;;;5074244;28;20180;-77
2022/04/15 03:23:08;;;;;;;22.58;14.27;;;15.50;68.10;;;;;;5094413;28;20032;-76
2022/04/15 03:25:34;;;;;;;23.45;13.93;;;15.50;68.50;;;;;;5095060;28;20051;-76
2022/04/15 03:28:00;;;;;;;20.92;14.32;;;15.50;68.80;;;;;;5094241;28;20469;-76
2022/04/15 03:30:27;;;;;;;18.73;12.95;;;15.50;69.10;;;;;;5094889;28;20024;-76
2022/04/15 03:32:53;;;;;;;16.65;14.00;;;15.40;69.40;;;;;;5094628;28;20046;-77
2022/04/15 03:35:21;;;;;;;17.17;13.13;;;15.40;69.70;;;;;;5094848;28;20039;-76
2022/04/15 03:37:50;;;;;;;15.70;12.73;;;15.40;70.20;;;;;;5094773;28;20062;-76
2022/04/15 03:40:17;;;;;;;17.60;13.07;;;15.40;70.60;;;;;;5094066;28;20036;-76
2022/04/15 03:42:50;;;;;;;16.27;12.98;;;15.40;70.80;;;;;;5094310;28;20035;-76
2022/04/15 03:45:22;;;;;;;17.27;12.43;;;15.40;70.80;;;;;;5093809;28;20029;-76
2022/04/15 03:47:54;;;;;;;18.75;12.02;;;15.40;71.20;;;;;;5091737;28;20044;-76
2022/04/15 03:50:38;;;;;;;15.65;11.48;;;15.40;71.50;;;;;;5094362;28;20484;-76
2022/04/15 03:53:03;;;;;;;17.25;11.50;;;15.40;71.80;;;;;;5094046;28;20151;-76
2022/04/15 03:55:29;;;;;;;16.13;11.75;;;15.30;72.20;;;;;;5094731;28;20158;-76
2022/04/15 03:57:54;;;;;;;17.55;11.00;;;15.30;72.50;;;;;;5094430;28;20144;-80
2022/04/15 04:00:23;;;;;;;12.35;10.15;;;15.30;72.70;;;;;;5094414;28;20099;-77
2022/04/15 04:02:51;;;;;;;13.00;10.00;;;15.30;72.80;;;;;;5094313;28;20050;-76
2022/04/15 04:05:17;;;;;;;15.95;10.23;;;15.30;73.00;;;;;;5075444;28;20388;-75
2022/04/15 04:07:43;;;;;;;13.68;9.98;;;15.30;72.90;;;;;;5076106;28;20024;-75
2022/04/15 04:10:13;;;;;;;13.02;10.45;;;15.30;74.00;;;;;;5093674;28;20028;-77
2022/04/15 04:12:40;;;;;;;11.95;10.00;;;15.20;73.50;;;;;;5094212;28;20111;-76
2022/04/15 04:15:08;;;;;;;11.93;9.50;;;15.20;73.90;;;;;;5093488;28;20024;-76
2022/04/15 04:17:34;;;;;;;14.93;9.82;;;15.20;73.90;;;;;;5094158;28;20032;-75
2022/04/15 04:20:00;;;;;;;10.88;8.82;;;15.20;74.50;;;;;;5075004;28;20031;-75
2022/04/15 04:22:33;;;;;;;13.43;9.27;;;15.20;74.70;;;;;;5093692;28;20028;-75
2022/04/15 04:24:58;;;;;;;11.38;8.63;;;15.20;74.80;;;;;;5093687;28;20020;-76
2022/04/15 04:27:24;;;;;;;14.77;9.25;;;15.20;75.00;;;;;;5093915;28;20092;-75
2022/04/15 04:29:50;;;;;;;19.25;8.93;;;15.20;75.10;;;;;;5093699;28;20137;-75
2022/04/15 04:32:16;;;;;;;12.15;8.70;;;15.20;75.20;;;;;;5092590;28;20122;-75
2022/04/15 04:34:42;;;;;;;13.85;8.50;;;15.20;75.20;;;;;;5093825;28;20089;-75
2022/04/15 04:37:08;;;;;;;11.77;8.60;;;15.30;75.50;;;;;;5093096;28;20457;-75
2022/04/15 04:39:33;;;;;;;12.23;8.68;;;15.30;75.30;;;;;;5093646;28;20085;-75
2022/04/15 04:42:00;;;;;;;12.43;8.25;;;15.30;75.30;;;;;;5092834;28;20081;-76
2022/04/15 04:44:44;;;;;;;11.82;7.53;;;15.30;75.60;;;;;;5093529;28;20032;-76
2022/04/15 04:47:10;;;;;;;12.18;7.95;;;15.30;75.40;;;;;;5074587;28;20377;-75
2022/04/15 04:49:37;;;;;;;11.23;7.35;;;15.40;76.10;;;;;;5093323;28;20025;-75
2022/04/15 04:52:04;;;;;;;9.20;6.53;;;15.40;76.20;;;;;;5091729;28;20414;-76
2022/04/15 04:54:30;;;;;;;13.45;7.25;;;15.40;76.30;;;;;;5092162;28;20059;-74
2022/04/15 04:56:56;;;;;;;10.45;6.82;;;15.40;76.20;;;;;;5093137;28;20341;-75
2022/04/15 04:59:29;;;;;;;8.93;6.65;;;15.40;76.40;;;;;;5092357;28;20024;-75
2022/04/15 05:01:55;;;;;;;10.02;6.70;;;15.40;76.30;;;;;;5093145;28;20036;-75
2022/04/15 05:04:21;;;;;;;8.18;6.32;;;15.50;76.40;;;;;;5092520;28;20024;-75
2022/04/15 05:06:47;;;;;;;9.85;6.53;;;15.50;76.40;;;;;;5093389;28;20024;-75
2022/04/15 05:09:12;;;;;;;9.20;6.13;;;15.40;76.60;;;;;;5091754;28;20016;-79
2022/04/15 05:11:38;;;;;;;7.90;6.07;;;15.50;76.60;;;;;;5069435;28;20108;-74
2022/04/15 05:14:03;;;;;;;10.75;6.20;;;15.40;77.40;;;;;;5073385;28;20024;-75
2022/04/15 05:16:30;;;;;;;7.95;6.10;;;15.40;77.00;;;;;;5091938;28;20031;-75
2022/04/15 05:18:56;;;;;;;10.82;6.75;;;15.40;77.10;;;;;;5092088;28;20103;-75
2022/04/15 05:21:21;;;;;;;7.30;5.95;;;15.40;77.30;;;;;;5092024;28;20181;-74
2022/04/15 05:23:47;;;;;;;8.50;5.72;;;15.40;77.20;;;;;;5092590;28;20055;-75
2022/04/15 05:26:13;;;;;;;10.05;6.30;;;15.50;77.20;;;;;;5073828;28;20119;-75
2022/04/15 05:28:41;;;;;;;8.00;5.32;;;15.50;77.20;;;;;;5091904;28;20060;-75
2022/04/15 05:31:07;;;;;;;9.68;5.05;;;15.50;77.30;;;;;;5091697;28;20390;-75
2022/04/15 05:33:32;;;;;;;10.98;5.30;;;15.50;77.30;;;;;;5092482;28;20024;-75
2022/04/15 05:35:58;;;;;;;10.18;5.47;;;15.50;77.10;;;;;;5079444;28;20040;-75
2022/04/15 05:38:23;;;;;;;12.45;6.05;;;15.60;77.10;;;;;;5070948;28;20582;-75
2022/04/15 05:40:49;;;;;;;9.43;5.90;;;15.60;76.60;;;;;;5071595;28;20024;-75
2022/04/15 05:43:16;;;;;;;7.80;5.47;;;15.70;76.50;;;;;;5070224;28;20048;-75
2022/04/15 05:45:41;;;;;;;9.25;5.43;;;15.70;76.60;;;;;;5074303;28;20028;-77
2022/04/15 05:48:07;;;;;;;10.90;5.40;;;15.80;76.60;;;;;;5071015;28;20518;-76
2022/04/15 05:50:33;;;;;;;9.98;5.60;;;15.90;76.60;;;;;;5071588;28;20031;-76
2022/04/15 05:52:58;;;;;;;9.70;5.20;;;15.90;76.20;;;;;;5054025;28;20028;-75
2022/04/15 05:55:24;;;;;;;14.35;6.25;;;15.90;76.30;;;;;;5071310;28;20437;-76
2022/04/15 05:57:50;;;;;;;6.65;5.35;;;16.00;76.10;;;;;;5071779;28;20032;-76
2022/04/15 06:00:17;;;;;;;11.43;5.30;;;16.10;75.70;;;;;;5070694;28;20053;-76
2022/04/15 06:02:42;;;;;;;10.75;5.53;;;16.10;75.70;;;;;;5071930;28;20101;-76
2022/04/15 06:05:09;;;;;;;8.43;6.10;;;16.20;75.60;;;;;;5070764;28;20049;-77
2022/04/15 06:07:35;;;;;;;10.25;5.00;;;16.20;75.60;;;;;;5072597;28;20035;-76
2022/04/15 06:10:01;;;;;;;6.05;4.07;;;16.30;76.00;;;;;;5072112;28;20025;-76
2022/04/15 06:15:28;;;;;;;7.15;3.85;;;16.20;77.60;;;;;;5070962;28;20166;-76
2022/04/15 06:17:53;;;;;;;7.40;3.55;;;16.20;78.70;;;;;;5053889;28;20029;-77
2022/04/15 06:20:19;;;;;;;8.35;3.92;;;16.10;79.30;;;;;;5070522;28;20051;-77
2022/04/15 06:22:45;;;;;;;5.30;3.60;;;15.90;80.20;;;;;;5071471;28;20036;-77
2022/04/15 06:25:11;;;;;;;8.88;3.72;;;15.90;81.20;;;;;;5070959;28;20055;-76
2022/04/15 06:27:37;;;;;;;8.63;3.85;;;15.90;82.40;;;;;;5071187;28;20431;-76
2022/04/15 06:30:04;;;;;;;7.65;3.88;;;15.90;83.60;;;;;;5071563;28;20050;-76
2022/04/15 06:32:29;;;;;;;5.05;3.63;;;15.90;84.80;;;;;;5070928;28;20028;-77
2022/04/15 06:34:55;;;;;;;7.00;3.72;;;15.80;85.20;;;;;;5071602;28;20070;-77
2022/04/15 06:37:20;;;;;;;12.90;4.93;;;15.80;85.90;;;;;;5070691;28;20025;-77
2022/04/15 06:39:50;;;;;;;7.75;3.40;;;15.80;86.70;;;;;;5071385;28;20039;-77
2022/04/15 06:42:27;;;;;;;5.40;3.20;;;15.70;88.20;;;;;;5070885;28;20040;-76
2022/04/15 06:44:53;;;;;;;7.07;3.50;;;15.60;89.50;;;;;;5071160;28;20490;-78
2022/04/15 06:47:19;;;;;;;5.15;3.63;;;15.60;90.50;;;;;;5070876;28;20545;-78
2022/04/15 06:49:46;;;;;;;8.52;4.22;;;15.50;91.20;;;;;;5071264;28;20116;-77
2022/04/15 06:52:12;;;;;;;7.25;3.90;;;15.50;91.70;;;;;;5070660;28;20029;-78
2022/04/15 06:54:38;;;;;;;8.20;3.92;;;15.40;92.50;;;;;;5072222;28;20031;-78
2022/04/15 06:57:04;;;;;;;5.40;3.72;;;15.30;93.20;;;;;;5075060;28;20028;-77
2022/04/15 06:59:30;;;;;;;7.00;4.00;;;15.20;94.00;;;;;;5074494;28;20071;-77
2022/04/15 07:01:56;;;;;;;6.30;4.00;;;15.20;94.60;;;;;;5075072;28;20035;-78
2022/04/15 07:04:23;;;;;;;8.38;3.92;;;15.20;95.10;;;;;;5074619;28;20037;-77
2022/04/15 07:06:49;;;;;;;6.30;4.90;;;15.10;95.70;;;;;;5075220;28;20082;-78
2022/04/15 07:09:15;;;;;;;6.53;4.13;;;15.10;96.40;;;;;;5074173;28;20108;-77
2022/04/15 07:11:41;;;;;;;6.95;4.30;;;15.10;96.80;;;;;;5086750;28;20063;-78
2022/04/15 07:14:07;;;;;;;7.30;4.00;;;15.10;97.40;;;;;;5095143;28;20031;-79
2022/04/15 07:16:34;;;;;;;8.23;4.63;;;15.00;98.00;;;;;;5094995;28;20023;-78
2022/04/15 07:19:07;;;;;;;9.75;5.13;;;15.00;98.30;;;;;;5095347;28;20028;-79
2022/04/15 07:21:37;;;;;;;7.75;5.90;;;15.00;98.90;;;;;;5076421;28;20384;-78
2022/04/15 07:24:04;;;;;;;11.00;6.13;;;15.10;99.40;;;;;;5094743;28;20032;-77
2022/04/15 07:26:30;;;;;;;9.25;5.65;;;15.10;99.80;;;;;;5093949;28;20283;-79
2022/04/15 07:28:56;;;;;;;9.52;6.53;;;15.10;99.80;;;;;;5095037;28;20031;-77
2022/04/15 07:31:22;;;;;;;14.38;6.88;;;15.10;99.90;;;;;;5076072;28;20380;-78
2022/04/15 07:33:48;;;;;;;8.10;6.28;;;15.10;99.90;;;;;;5094646;28;20553;-78
2022/04/15 07:38:59;;;;;;;12.13;7.35;;;15.00;99.90;;;;;;5094483;28;20442;-77
2022/04/15 07:41:24;;;;;;;9.57;6.97;;;14.90;99.90;;;;;;5094304;28;20031;-79
2022/04/15 07:43:50;;;;;;;9.88;7.45;;;14.90;99.90;;;;;;5095158;28;20031;-79
2022/04/15 07:46:16;;;;;;;13.48;6.88;;;14.90;99.90;;;;;;5094279;28;20024;-78
2022/04/15 07:48:42;;;;;;;11.30;8.02;;;14.90;99.90;;;;;;5094534;28;20024;-79
2022/04/15 07:51:08;;;;;;;8.80;7.20;;;14.90;99.90;;;;;;5091101;28;20020;-78
2022/04/15 07:53:34;;;;;;;12.75;7.88;;;14.90;99.90;;;;;;5073397;28;20075;-78
2022/04/15 07:56:00;;;;;;;15.10;7.47;;;14.80;99.90;;;;;;5074342;28;20029;-79
2022/04/15 07:58:25;;;;;;;10.40;7.30;;;14.70;99.90;;;;;;5055737;28;20029;-79
2022/04/15 08:00:51;;;;;;;10.32;8.18;;;14.70;99.90;;;;;;5055985;28;20052;-78
2022/04/15 08:03:20;;;;;;;12.02;8.00;;;14.70;99.90;;;;;;5073575;28;20032;-79
2022/04/15 08:05:49;;;;;;;11.75;8.85;;;14.70;99.90;;;;;;5056337;28;20028;-79
2022/04/15 08:08:15;;;;;;;14.23;8.40;;;14.70;99.90;;;;;;5073409;28;20161;-78
2022/04/15 08:10:41;;;;;;;10.90;7.85;;;14.70;99.90;;;;;;5073733;28;20416;-78
2022/04/15 08:13:07;;;;;;;10.38;7.63;;;14.70;99.90;;;;;;5056096;28;20055;-79
2022/04/15 08:15:33;;;;;;;14.43;8.38;;;14.70;99.90;;;;;;5073349;28;20023;-78
2022/04/15 08:17:59;;;;;;;12.50;8.38;;;14.80;99.90;;;;;;5055994;28;20367;-77
2022/04/15 08:20:25;;;;;;;12.32;8.35;;;14.80;99.90;;;;;;5072924;28;20039;-79
2022/04/15 08:22:51;;;;;;;10.63;7.90;;;14.80;99.90;;;;;;5073787;28;20039;-79
2022/04/15 08:25:16;;;;;;;9.07;8.18;;;14.70;99.90;;;;;;5072686;28;20358;-79
2022/04/15 08:27:42;;;;;;;12.15;8.48;;;14.80;99.90;;;;;;5073493;28;20127;-78
2022/04/15 08:30:08;;;;;;;16.00;8.10;;;14.70;99.90;;;;;;5073382;28;20028;-77
2022/04/15 08:32:34;;;;;;;9.73;8.18;;;14.70;99.90;;;;;;5073017;28;20035;-77
2022/04/15 08:35:01;;;;;;;9.18;8.25;;;14.70;99.90;;;;;;5073146;28;20024;-78
2022/04/15 08:37:26;;;;;;;11.35;9.10;;;14.70;99.90;;;;;;5072838;28;20028;-76
2022/04/15 08:39:53;;;;;;;11.32;8.93;;;14.70;99.90;;;;;;5073278;28;20104;-78
2022/04/15 08:42:20;;;;;;;9.98;8.50;;;14.70;99.90;;;;;;5072375;28;20527;-78
2022/04/15 08:44:51;;;;;;;14.98;9.05;;;14.70;99.90;;;;;;5073537;28;20074;-79
2022/04/15 08:47:17;;;;;;;11.32;8.35;;;14.70;99.90;;;;;;5072565;28;20025;-79
2022/04/15 08:49:43;;;;;;;10.82;8.40;;;14.70;99.90;;;;;;5073215;28;20109;-78
2022/04/15 08:52:10;;;;;;;11.48;8.50;;;14.80;99.90;;;;;;5073039;28;20029;-77
2022/04/15 08:54:36;;;;;;;18.17;9.05;;;14.80;99.90;;;;;;5071873;28;20433;-78
2022/04/15 08:57:02;;;;;;;11.27;9.05;;;14.80;99.90;;;;;;5073195;28;20029;-77
2022/04/15 08:59:28;;;;;;;12.32;8.55;;;14.70;99.90;;;;;;5071763;28;20075;-78
2022/04/15 09:01:54;;;;;;;13.38;8.93;;;14.70;99.90;;;;;;5085064;28;20421;-77
2022/04/15 09:04:19;;;;;;;14.43;9.77;;;14.70;99.90;;;;;;5092471;28;20093;-79
2022/04/15 09:06:53;;;;;;;13.20;9.73;;;14.70;99.90;;;;;;5093177;28;20039;-78
2022/04/15 09:09:19;;;;;;;13.27;10.20;;;14.70;99.90;;;;;;5074189;28;20035;-78
2022/04/15 09:11:48;;;;;;;13.30;11.18;;;14.70;99.90;;;;;;5092893;28;20042;-78
2022/04/15 09:14:15;;;;;;;15.38;11.13;;;14.70;99.90;;;;;;5092548;28;20111;-77
2022/04/15 09:16:45;;;;;;;24.58;11.20;;;14.70;99.90;;;;;;5092028;28;20445;-78
2022/04/15 09:19:12;;;;;;;14.40;11.32;;;14.70;99.90;;;;;;5091989;28;20043;-77
2022/04/15 09:21:39;;;;;;;11.55;10.32;;;14.80;99.90;;;;;;5091529;28;20118;-78
2022/04/15 09:24:07;;;;;;;16.08;11.02;;;14.80;99.90;;;;;;5092383;28;20107;-77
2022/04/15 09:26:33;;;;;;;14.93;11.75;;;14.90;99.90;;;;;;5092078;28;20028;-77
2022/04/15 09:28:59;;;;;;;12.57;9.38;;;15.00;99.90;;;;;;5092252;28;20085;-77
2022/04/15 09:31:44;;;;;;;11.60;8.48;;;15.00;99.90;;;;;;5091741;28;20510;-77
2022/04/15 09:34:09;;;;;;;12.45;9.68;;;15.00;99.90;;;;;;5092462;28;20086;-77
2022/04/15 09:36:37;;;;;;;14.80;9.75;;;15.10;99.90;;;;;;5091979;28;20032;-78
2022/04/15 09:39:10;;;;;;;12.13;9.00;;;15.20;99.90;;;;;;5092402;28;20081;-78
2022/04/15 09:41:41;;;;;;;12.23;8.63;;;15.30;99.90;;;;;;5091762;28;20024;-78
2022/04/15 09:44:11;;;;;;;10.90;9.40;;;15.40;99.90;;;;;;5092039;28;20503;-78
2022/04/15 09:46:36;;;;;;;11.85;7.95;;;15.50;99.90;;;;;;5073546;28;20110;-77
2022/04/15 09:49:05;;;;;;;8.48;6.47;;;15.60;99.90;;;;;;5092450;28;20056;-77
2022/04/15 09:51:37;;;;;;;8.02;6.13;;;15.70;97.80;;;;;;5091706;28;20103;-77
2022/04/15 09:54:09;;;;;;;8.85;6.18;;;15.90;95.60;;;;;;5074203;28;20047;-77
2022/04/15 09:56:39;;;;;;;8.85;5.93;;;16.20;95.90;;;;;;5091431;28;20121;-77
2022/04/15 09:59:08;;;;;;;9.13;6.13;;;16.40;93.10;;;;;;5090177;28;20055;-77
2022/04/15 10:01:40;;;;;;;6.65;5.05;;;16.60;92.20;;;;;;5091246;28;20040;-77
2022/04/15 10:04:08;;;;;;;6.20;3.47;;;16.90;91.10;;;;;;5091919;28;20032;-76
2022/04/15 10:06:34;;;;;;;6.28;3.20;;;17.10;81.40;;;;;;5090971;28;20055;-77
2022/04/15 10:09:02;;;;;;;6.57;3.38;;;17.30;77.80;;;;;;5073771;28;20035;-77
2022/04/15 10:11:32;;;;;;;7.43;3.65;;;17.50;77.40;;;;;;5091315;28;20020;-76
2022/04/15 10:16:43;;;;;;;6.30;4.07;;;17.90;78.20;;;;;;5091165;28;20113;-77
2022/04/15 10:19:10;;;;;;;6.97;3.72;;;18.10;74.10;;;;;;5092195;28;20056;-77
2022/04/15 10:21:45;;;;;;;5.25;3.97;;;18.20;73.90;;;;;;5091139;28;20115;-76
2022/04/15 10:24:12;;;;;;;6.03;3.88;;;18.40;74.10;;;;;;5091627;28;20021;-76
2022/04/15 10:26:44;;;;;;;6.05;3.50;;;18.50;74.30;;;;;;5090824;28;20081;-76
2022/04/15 10:29:11;;;;;;;5.85;3.28;;;18.70;73.40;;;;;;5091921;28;20024;-76
2022/04/15 10:31:42;;;;;;;3.80;2.92;;;18.80;67.40;;;;;;5094839;28;20549;-77
2022/04/15 10:34:12;;;;;;;;;;;18.90;65.80;;;;;;5078085;28;20121;-76
2022/04/15 10:36:38;;;;;;;5.55;2.67;;;18.90;64.10;;;;;;5095195;28;19926;-76
2022/04/15 10:39:06;;;;;;;4.28;2.65;;;19.00;62.80;;;;;;5077533;28;20111;-75
2022/04/15 10:41:46;;;;;;;5.13;3.28;;;19.00;63.70;;;;;;5095328;28;20050;-75
2022/04/15 10:44:35;;;;;;;5.80;3.80;;;19.10;64.70;;;;;;5095579;28;20020;-76
2022/04/15 10:47:08;;;;;;;5.75;3.90;;;19.20;65.00;;;;;;5060796;28;20028;-76
2022/04/15 10:49:36;;;;;;;3.60;2.47;;;19.30;64.80;;;;;;5095127;28;20020;-76
2022/04/15 10:52:24;;;;;;;7.22;2.85;;;19.40;63.20;;;;;;5095538;28;20069;-76
2022/04/15 10:54:58;;;;;;;5.07;2.40;;;19.50;62.90;;;;;;5076475;28;20372;-75
2022/04/15 10:57:40;;;;;;;4.35;2.22;;;19.80;63.20;;;;;;5095353;28;20031;-76
2022/04/15 11:03:00;;;;;;;3.70;1.75;;;20.20;55.70;;;;;;5095021;28;20063;-75
2022/04/15 11:05:36;;;;;;;3.88;2.10;;;20.20;56.30;;;;;;5094578;28;20023;-79
2022/04/15 11:08:06;;;;;;;2.75;2.10;;;20.40;54.80;;;;;;5076355;28;20504;-75
2022/04/15 11:10:48;;;;;;;3.15;1.85;;;20.40;54.40;;;;;;5094336;28;20024;-76
2022/04/15 11:13:22;;;;;;;;;;;20.40;55.30;;;;;;5095451;28;20354;-76
2022/04/15 11:16:18;;;;;;;5.10;2.60;;;20.40;54.70;;;;;;5094415;28;20007;-77
2022/04/15 11:19:00;;;;;;;4.63;2.50;;;20.50;53.60;;;;;;5076120;28;20033;-77
2022/04/15 11:21:29;;;;;;;8.95;3.88;;;20.50;55.70;;;;;;5095222;28;20028;-76
2022/04/15 11:23:59;;;;;;;5.90;4.13;;;20.50;57.60;;;;;;5095004;28;20024;-75
2022/04/15 11:26:26;;;;;;;6.35;3.38;;;20.40;58.10;;;;;;5094939;28;20032;-76
2022/04/15 11:28:54;;;;;;;5.25;3.55;;;20.50;58.10;;;;;;5094490;28;20027;-75
2022/04/15 11:31:30;;;;;;;3.75;3.10;;;20.40;56.60;;;;;;5094650;28;20418;-76
2022/04/15 11:34:06;;;;;;;4.30;3.17;;;20.30;55.80;;;;;;5094884;28;20103;-75
2022/04/15 11:36:36;;;;;;;6.80;3.53;;;20.10;56.20;;;;;;5094340;28;20024;-76
2022/04/15 11:39:08;;;;;;;5.47;4.00;;;20.10;56.60;;;;;;5094611;28;20062;-75
2022/04/15 11:41:34;;;;;;;8.73;4.45;;;20.20;58.20;;;;;;5074971;28;20036;-77
2022/04/15 11:44:06;;;;;;;8.43;5.72;;;20.20;58.60;;;;;;5094679;28;20027;-75
2022/04/15 11:46:47;;;;;;;8.82;6.05;;;20.20;59.60;;;;;;5094098;28;20028;-76
2022/04/15 11:49:13;;;;;;;;;;;20.20;59.40;;;;;;5094976;28;20059;-76
2022/04/15 11:51:42;;;;;;;6.30;5.38;;;20.30;60.70;;;;;;5093828;28;19957;-76
2022/04/15 11:54:08;;;;;;;8.13;5.25;;;20.40;60.70;;;;;;5083616;28;20017;-76
2022/04/15 11:56:35;;;;;;;11.07;4.70;;;20.60;61.50;;;;;;5055400;28;20027;-76
2022/04/15 11:59:00;;;;;;;6.75;4.75;;;20.60;57.50;;;;;;5056103;28;20074;-76
2022/04/15 12:01:28;;;;;;;6.65;4.40;;;20.60;56.40;;;;;;5073757;28;20493;-75
2022/04/15 12:03:54;;;;;;;7.22;5.00;;;20.60;56.30;;;;;;5073406;28;20025;-75
2022/04/15 12:06:20;;;;;;;5.90;4.70;;;20.50;54.80;;;;;;5073717;28;20373;-75
2022/04/15 12:08:46;;;;;;;7.90;4.63;;;20.40;55.80;;;;;;5073303;28;20101;-77
2022/04/15 12:11:12;;;;;;;6.63;4.90;;;20.40;56.50;;;;;;5055448;28;20465;-75
2022/04/15 12:13:37;;;;;;;7.05;4.80;;;20.30;56.40;;;;;;5073499;28;20150;-75
2022/04/15 12:16:04;;;;;;;6.00;4.63;;;20.20;56.50;;;;;;5073784;28;20107;-76
2022/04/15 12:18:30;;;;;;;7.13;4.40;;;20.20;56.00;;;;;;5073623;28;20043;-76
2022/04/15 12:20:56;;;;;;;6.22;4.50;;;20.00;56.10;;;;;;5073290;28;20331;-76
2022/04/15 12:23:25;;;;;;;8.40;3.70;;;20.00;55.40;;;;;;5055410;28;20029;-76
2022/04/15 12:26:06;;;;;;;6.43;3.85;;;19.90;55.20;;;;;;5055119;28;20362;-77
2022/04/15 12:31:32;;;;;;;5.55;3.88;;;19.80;54.40;;;;;;5073582;28;20051;-76
2022/04/15 12:34:02;;;;;;;9.10;4.05;;;19.80;54.50;;;;;;5073666;28;20081;-76
2022/04/15 12:36:48;;;;;;;7.30;4.88;;;19.80;56.10;;;;;;5073433;28;20024;-76
2022/04/15 12:39:14;;;;;;;7.35;4.25;;;19.80;58.40;;;;;;5073236;28;20473;-75
2022/04/15 12:41:49;;;;;;;5.90;4.47;;;19.80;58.40;;;;;;5072599;28;20119;-76
2022/04/15 12:44:27;;;;;;;8.73;3.97;;;19.80;56.30;;;;;;5073151;28;20028;-76
2022/04/15 12:47:02;;;;;;;5.35;3.72;;;19.90;57.80;;;;;;5054840;28;20025;-76
2022/04/15 12:49:36;;;;;;;7.22;5.15;;;20.00;59.10;;;;;;5073569;28;20040;-77
2022/04/15 12:52:21;;;;;;;6.25;5.25;;;20.00;60.30;;;;;;5073074;28;20029;-77
2022/04/15 12:55:04;;;;;;;7.53;4.88;;;20.10;59.10;;;;;;5072615;28;20024;-76
2022/04/15 12:57:41;;;;;;;8.43;5.20;;;20.00;59.20;;;;;;5073072;28;20034;-75
2022/04/15 13:00:11;;;;;;;7.15;4.70;;;20.10;59.80;;;;;;5073219;28;20057;-75